1918 NOT_NAMED (1918273N14130)


IBTrACS version v04r00. Visit IBTrACS website for data access.
Please direct all questions to the IBTrACS Q and A forum

Storm track - Intensity - Wind Radii - Intensity Data - Source Data - All data

Summary Information

Storm ID 1918273N14130
Start Sep 29 22Z
End Oct 5 22Z
ATCF IDs
Track status Best track data.

Storm track plot

Map of storm track

Intensity plots

No Intensity information for this storm


Radial wind information

No radial wind information for this storm


Position and Intensity Table

BASIN ISO_TIME_________ NATURE LAT LON
degrees north degrees east
WP 1918-09-29 22:00:00 NR 14.20 129.70
WP 1918-09-30 00:00:00 NR 14.27 129.60
WP 03:00:00 NR 14.37 129.45
WP 06:00:00 NR 14.47 129.30
WP 09:00:00 NR 14.57 129.15
WP 10:00:00 NR 14.60 129.10
WP 12:00:00 NR 14.66 129.00
WP 15:00:00 NR 14.75 128.86
WP 18:00:00 NR 14.84 128.71
WP 21:00:00 NR 14.96 128.55
WP 22:00:00 NR 15.00 128.50
WP 1918-10-01 00:00:00 NR 15.10 128.39
WP 03:00:00 NR 15.27 128.22
WP 06:00:00 NR 15.45 128.05
WP 09:00:00 NR 15.64 127.86
WP 10:00:00 NR 15.70 127.80
WP 12:00:00 NR 15.81 127.67
WP 15:00:00 NR 15.98 127.46
WP 18:00:00 NR 16.15 127.26
WP 21:00:00 NR 16.33 127.06
WP 22:00:00 NR 16.40 127.00
WP 1918-10-02 00:00:00 NR 16.54 126.89
WP 03:00:00 NR 16.75 126.73
WP 06:00:00 NR 16.98 126.59
WP 09:00:00 NR 17.22 126.45
WP 10:00:00 NR 17.30 126.40
WP 12:00:00 NR 17.46 126.30
WP 15:00:00 NR 17.71 126.14
WP 18:00:00 NR 17.96 125.99
WP 21:00:00 NR 18.22 125.85
WP 22:00:00 NR 18.30 125.80
WP 1918-10-03 00:00:00 NR 18.47 125.71
WP 03:00:00 NR 18.73 125.58
WP 06:00:00 NR 18.98 125.46
WP 09:00:00 NR 19.22 125.34
WP 10:00:00 NR 19.30 125.30
WP 12:00:00 NR 19.43 125.22
WP 15:00:00 NR 19.62 125.09
WP 18:00:00 NR 19.81 124.97
WP 21:00:00 NR 20.02 124.84
WP 22:00:00 NR 20.10 124.80
WP 1918-10-04 00:00:00 NR 20.28 124.71
WP 03:00:00 NR 20.58 124.59
WP 06:00:00 NR 20.89 124.46
WP 09:00:00 NR 21.20 124.34
WP 10:00:00 NR 21.30 124.30
WP 12:00:00 NR 21.45 124.24
WP 15:00:00 NR 21.67 124.14
WP 18:00:00 NR 21.90 124.05
WP 21:00:00 NR 22.19 123.94
WP 22:00:00 NR 22.30 123.90
WP 1918-10-05 00:00:00 NR 22.58 123.79
WP 03:00:00 NR 23.07 123.61
WP 06:00:00 NR 23.60 123.42
WP 09:00:00 NR 24.13 123.25
WP 10:00:00 NR 24.30 123.20
WP 12:00:00 NR 24.63 123.12
WP 15:00:00 NR 25.10 123.03
WP 18:00:00 NR 25.54 122.96
WP 21:00:00 NR 25.96 122.91
WP 22:00:00 NR 26.10 122.90

Source Information

Agency Information
USA
TOKYO
CMA
HKO
NEWDELHI
REUNION
BOM
NADI
WELLINGTON
DS824
TD9636 cons_worldwide_trop_cyclone_18710101-19891231-003:Line=5802
TD9635
NEUMANN
MLC

All available IBTrACS Data

SEASON BASIN SUBBASIN ISO_TIME_________ NATURE LAT LON DIST2LAND LANDFALL IFLAG USA SSHS TD9636 LAT TD9636 LON TD9636 STAGE STORM SPEED STORM DIR
Year degrees north degrees east km km 1 degrees north degrees east kts degrees
1918 WP MM 1918-09-29 22:00:00 NR 14.20 129.70 507 497 __________O___ -1 14.20 129.70 7 4 306
1918 WP MM 1918-09-30 00:00:00 NR 14.27 129.60 502 488 __________P___ -1 14.27 129.60 7 4 306
1918 WP MM 03:00:00 NR 14.37 129.45 488 479 __________P___ -1 14.37 129.45 7 4 305
1918 WP MM 06:00:00 NR 14.47 129.30 485 473 __________P___ -1 14.47 129.30 7 4 304
1918 WP MM 09:00:00 NR 14.57 129.15 473 473 __________P___ -1 14.57 129.15 7 3 304
1918 WP MM 10:00:00 NR 14.60 129.10 473 464 __________O___ -1 14.60 129.10 7 3 302
1918 WP MM 12:00:00 NR 14.66 129.00 470 462 __________P___ -1 14.66 129.00 7 3 302
1918 WP MM 15:00:00 NR 14.75 128.86 462 452 __________P___ -1 14.75 128.86 7 3 303
1918 WP MM 18:00:00 NR 14.84 128.71 452 451 __________P___ -1 14.84 128.71 7 4 306
1918 WP MM 21:00:00 NR 14.96 128.55 458 451 __________P___ -1 14.96 128.55 7 4 308
1918 WP MM 22:00:00 NR 15.00 128.50 451 443 __________O___ -1 15.00 128.50 7 4 312
1918 WP MM 1918-10-01 00:00:00 NR 15.10 128.39 451 434 __________P___ -1 15.10 128.39 7 5 315
1918 WP MM 03:00:00 NR 15.27 128.22 438 426 __________P___ -1 15.27 128.22 7 5 316
1918 WP MM 06:00:00 NR 15.45 128.05 426 421 __________P___ -1 15.45 128.05 7 5 317
1918 WP MM 09:00:00 NR 15.64 127.86 421 417 __________P___ -1 15.64 127.86 7 5 316
1918 WP MM 10:00:00 NR 15.70 127.80 417 408 __________O___ -1 15.70 127.80 7 5 313
1918 WP MM 12:00:00 NR 15.81 127.67 413 401 __________P___ -1 15.81 127.67 7 5 310
1918 WP MM 15:00:00 NR 15.98 127.46 407 397 __________P___ -1 15.98 127.46 7 5 311
1918 WP MM 18:00:00 NR 16.15 127.26 404 395 __________P___ -1 16.15 127.26 7 5 313
1918 WP MM 21:00:00 NR 16.33 127.06 395 395 __________P___ -1 16.33 127.06 7 5 315
1918 WP MM 22:00:00 NR 16.40 127.00 395 395 __________O___ -1 16.40 127.00 3 5 320
1918 WP MM 1918-10-02 00:00:00 NR 16.54 126.89 395 395 __________P___ -1 16.54 126.89 3 5 324
1918 WP MM 03:00:00 NR 16.75 126.73 405 405 __________P___ -1 16.75 126.73 3 5 327
1918 WP MM 06:00:00 NR 16.98 126.59 416 410 __________P___ -1 16.98 126.59 3 5 330
1918 WP MM 09:00:00 NR 17.22 126.45 415 415 __________P___ -1 17.22 126.45 3 6 330
1918 WP MM 10:00:00 NR 17.30 126.40 415 406 __________O___ -1 17.30 126.40 4 6 330
1918 WP MM 12:00:00 NR 17.46 126.30 407 390 __________P___ -1 17.46 126.30 4 6 329
1918 WP MM 15:00:00 NR 17.71 126.14 390 384 __________P___ -1 17.71 126.14 4 6 330
1918 WP MM 18:00:00 NR 17.96 125.99 387 369 __________P___ -1 17.96 125.99 4 6 331
1918 WP MM 21:00:00 NR 18.22 125.85 369 369 __________P___ -1 18.22 125.85 4 6 332
1918 WP MM 22:00:00 NR 18.30 125.80 369 358 __________O___ -1 18.30 125.80 4 6 333
1918 WP MM 1918-10-03 00:00:00 NR 18.47 125.71 358 348 __________P___ -1 18.47 125.71 4 6 334
1918 WP MM 03:00:00 NR 18.73 125.58 349 340 __________P___ -1 18.73 125.58 4 6 335
1918 WP MM 06:00:00 NR 18.98 125.46 343 328 __________P___ -1 18.98 125.46 4 5 335
1918 WP MM 09:00:00 NR 19.22 125.34 328 328 __________P___ -1 19.22 125.34 4 5 335
1918 WP MM 10:00:00 NR 19.30 125.30 331 324 __________O___ -1 19.30 125.30 4 5 331
1918 WP MM 12:00:00 NR 19.43 125.22 324 319 __________P___ -1 19.43 125.22 4 5 328
1918 WP MM 15:00:00 NR 19.62 125.09 323 318 __________P___ -1 19.62 125.09 4 4 328
1918 WP MM 18:00:00 NR 19.81 124.97 324 314 __________P___ -1 19.81 124.97 4 5 330
1918 WP MM 21:00:00 NR 20.02 124.84 317 317 __________P___ -1 20.02 124.84 4 5 331
1918 WP MM 22:00:00 NR 20.10 124.80 324 322 __________O___ -1 20.10 124.80 4 6 336
1918 WP MM 1918-10-04 00:00:00 NR 20.28 124.71 329 328 __________P___ -1 20.28 124.71 4 6 337
1918 WP MM 03:00:00 NR 20.58 124.59 344 344 __________P___ -1 20.58 124.59 4 7 339
1918 WP MM 06:00:00 NR 20.89 124.46 362 355 __________P___ -1 20.89 124.46 4 7 340
1918 WP MM 09:00:00 NR 21.20 124.34 360 357 __________P___ -1 21.20 124.34 4 7 340
1918 WP MM 10:00:00 NR 21.30 124.30 357 338 __________O___ -1 21.30 124.30 4 5 339
1918 WP MM 12:00:00 NR 21.45 124.24 338 318 __________P___ -1 21.45 124.24 4 5 339
1918 WP MM 15:00:00 NR 21.67 124.14 318 308 __________P___ -1 21.67 124.14 4 5 339
1918 WP MM 18:00:00 NR 21.90 124.05 308 275 __________P___ -1 21.90 124.05 4 6 340
1918 WP MM 21:00:00 NR 22.19 123.94 275 271 __________P___ -1 22.19 123.94 4 6 341
1918 WP MM 22:00:00 NR 22.30 123.90 271 252 __________O___ -1 22.30 123.90 4 8 340
1918 WP MM 1918-10-05 00:00:00 NR 22.58 123.79 252 224 __________P___ -1 22.58 123.79 4 10 341
1918 WP MM 03:00:00 NR 23.07 123.61 224 182 __________P___ -1 23.07 123.61 4 11 341
1918 WP MM 06:00:00 NR 23.60 123.42 182 139 __________P___ -1 23.60 123.42 4 11 343
1918 WP MM 09:00:00 NR 24.13 123.25 139 133 __________P___ -1 24.13 123.25 4 11 344
1918 WP MM 10:00:00 NR 24.30 123.20 133 119 __________O___ -1 24.30 123.20 4 10 347
1918 WP MM 12:00:00 NR 24.63 123.12 119 100 __________P___ -1 24.63 123.12 4 10 349
1918 WP MM 15:00:00 NR 25.10 123.03 101 101 __________P___ -1 25.10 123.03 4 9 351
1918 WP MM 18:00:00 NR 25.54 122.96 114 119 __________P___ -1 25.54 122.96 4 9 354
1918 WP MM 21:00:00 NR 25.96 122.91 143 143 __________P___ -1 25.96 122.91 4 9 354
1918 WP MM 22:00:00 NR 26.10 122.90 152 __________O___ -1 26.10 122.90 4 8 349